createdAt,value
2023-03-21T00:09:44.138Z,9.53
2023-03-21T00:19:51.181Z,9.64
2023-03-21T00:29:57.986Z,9.65
2023-03-21T00:40:25.405Z,9.71
2023-03-21T00:50:34.614Z,9.60
2023-03-21T01:00:39.324Z,9.73
2023-03-21T01:10:48.316Z,9.66
2023-03-21T01:20:54.993Z,9.53
2023-03-21T01:31:03.500Z,9.45
2023-03-21T01:41:18.791Z,9.45
2023-03-21T01:51:30.981Z,9.50
2023-03-21T02:01:40.504Z,9.56
2023-03-21T02:11:49.416Z,9.60
2023-03-21T02:21:58.083Z,9.61
2023-03-21T02:32:37.422Z,9.77
2023-03-21T02:43:01.161Z,9.70
2023-03-21T02:53:13.703Z,9.73
2023-03-21T03:03:33.068Z,9.78
2023-03-21T03:13:54.161Z,9.55
2023-03-21T03:24:10.057Z,9.45
2023-03-21T03:34:20.824Z,9.50
2023-03-21T03:44:26.294Z,9.45
2023-03-21T03:54:41.737Z,9.32
2023-03-21T04:04:46.249Z,9.25
2023-03-21T04:14:53.292Z,9.28
2023-03-21T04:25:01.985Z,9.26
2023-03-21T04:35:08.683Z,9.20
2023-03-21T04:45:15.919Z,9.38
2023-03-21T04:55:23.425Z,9.37
2023-03-21T05:05:27.313Z,9.26
2023-03-21T05:15:31.535Z,9.48
2023-03-21T05:25:39.040Z,9.63
2023-03-21T05:35:51.886Z,9.67
2023-03-21T05:45:58.716Z,9.81
2023-03-21T05:56:09.012Z,9.82
2023-03-21T06:06:27.942Z,9.88
2023-03-21T06:16:44.109Z,10.10
2023-03-21T06:26:48.618Z,10.34
2023-03-21T06:36:56.615Z,10.34
2023-03-21T06:47:07.934Z,10.29
2023-03-21T06:57:13.663Z,10.15
2023-03-21T07:07:18.379Z,10.23
2023-03-21T07:17:22.297Z,10.12
2023-03-21T07:27:27.468Z,9.86
2023-03-21T07:37:35.911Z,10.00
2023-03-21T07:47:44.039Z,9.54
2023-03-21T07:57:54.394Z,9.48
2023-03-21T08:07:58.070Z,9.63
2023-03-21T08:18:02.978Z,10.14
2023-03-21T08:28:06.501Z,10.22
2023-03-21T08:38:10.329Z,10.35
2023-03-21T08:48:14.084Z,10.44
2023-03-21T08:58:18.101Z,10.01
2023-03-21T09:08:28.561Z,10.10
2023-03-21T09:18:55.710Z,10.38
2023-03-21T09:29:01.104Z,10.09
2023-03-21T09:39:08.317Z,10.77
2023-03-21T09:49:29.804Z,10.63
2023-03-21T09:59:41.564Z,10.49
2023-03-21T10:09:50.221Z,10.62
2023-03-21T10:20:32.894Z,10.74
2023-03-21T10:30:42.474Z,11.07
2023-03-21T10:40:49.073Z,11.19
2023-03-21T10:50:55.518Z,11.15
2023-03-21T11:01:13.601Z,11.32
2023-03-21T11:11:27.861Z,11.49
2023-03-21T11:21:39.215Z,11.60
2023-03-21T11:31:43.477Z,11.63
2023-03-21T11:41:51.973Z,12.17
2023-03-21T11:52:04.799Z,11.96
2023-03-21T12:02:44.364Z,11.86
2023-03-21T12:13:26.680Z,11.77
2023-03-21T12:23:41.287Z,11.59
2023-03-21T12:33:59.718Z,11.39
2023-03-21T12:44:22.542Z,11.67
2023-03-21T12:54:43.123Z,11.77
2023-03-21T13:05:19.863Z,11.76
2023-03-21T13:15:33.776Z,11.50
2023-03-21T13:25:49.832Z,11.48
2023-03-21T13:36:43.604Z,11.15
2023-03-21T13:47:25.749Z,11.36
2023-03-21T14:10:31.046Z,11.73
2023-03-21T14:20:38.987Z,11.91
2023-03-21T14:30:45.840Z,11.71
2023-03-21T14:40:53.779Z,11.67
2023-03-21T14:52:14.186Z,11.15
2023-03-21T15:02:28.405Z,11.33
2023-03-21T15:12:36.259Z,11.44
2023-03-21T15:22:46.522Z,11.43
2023-03-21T15:32:51.457Z,11.31
2023-03-21T15:43:22.774Z,11.22
2023-03-21T15:53:27.751Z,11.22
2023-03-21T16:03:41.924Z,11.46
2023-03-21T16:13:46.564Z,10.64
2023-03-21T16:23:52.492Z,10.62
2023-03-21T16:33:56.167Z,10.56
2023-03-21T16:44:03.439Z,10.31
2023-03-21T16:54:07.203Z,9.97
2023-03-21T17:04:13.184Z,9.59
2023-03-21T17:14:18.246Z,9.20
2023-03-21T17:24:23.392Z,8.78
2023-03-21T17:34:27.447Z,8.37
2023-03-21T17:44:31.192Z,7.88
2023-03-21T17:54:36.561Z,7.59
2023-03-21T18:04:47.107Z,7.44
2023-03-21T18:15:30.780Z,7.32
2023-03-21T18:30:22.187Z,7.14
2023-03-21T18:37:39.479Z,6.90
2023-03-21T19:10:51.652Z,6.29
2023-03-21T19:20:58.824Z,6.13
2023-03-21T19:31:07.862Z,5.98
2023-03-21T19:41:23.390Z,5.94
2023-03-21T19:51:30.923Z,5.73
2023-03-21T20:02:21.574Z,5.69
2023-03-21T20:12:27.895Z,5.54
2023-03-21T20:33:05.481Z,5.36
2023-03-21T20:44:11.694Z,5.31
2023-03-21T20:53:50.271Z,5.23
2023-03-21T21:04:03.796Z,5.20
2023-03-21T21:14:14.474Z,5.01
2023-03-21T21:24:19.401Z,4.86
2023-03-21T21:34:25.614Z,4.72
2023-03-21T21:44:29.576Z,4.62
2023-03-21T21:54:36.120Z,4.55
2023-03-21T22:04:40.293Z,4.48
2023-03-21T22:14:44.101Z,4.41
2023-03-21T22:24:47.988Z,4.32
2023-03-21T22:34:51.565Z,4.32
2023-03-21T22:44:55.536Z,4.22
2023-03-21T22:55:01.007Z,4.19
2023-03-21T23:05:04.902Z,4.19
2023-03-21T23:15:09.816Z,4.14
2023-03-21T23:25:13.652Z,4.12
2023-03-21T23:35:17.585Z,4.14
2023-03-21T23:45:21.457Z,4.11
2023-03-21T23:55:29.803Z,3.99
